sensor_id;sensor_type;location;lat;lon;timestamp;pressure;altitude;pressure_sealevel;temperature;humidity
13709;BME280;54933;51.908;7.730;2023-02-02T00:01:47;101179.72;;;20.94;65.04
13709;BME280;54933;51.908;7.730;2023-02-02T00:04:21;101184.06;;;20.95;64.85
13709;BME280;54933;51.908;7.730;2023-02-02T00:06:46;101178.88;;;20.94;64.94
13709;BME280;54933;51.908;7.730;2023-02-02T00:09:18;101178.66;;;20.95;64.95
13709;BME280;54933;51.908;7.730;2023-02-02T00:11:45;101180.72;;;20.93;64.77
13709;BME280;54933;51.908;7.730;2023-02-02T00:14:12;101181.19;;;20.97;64.73
13709;BME280;54933;51.908;7.730;2023-02-02T00:16:40;101180.16;;;20.98;64.90
13709;BME280;54933;51.908;7.730;2023-02-02T00:19:29;101185.16;;;21.01;64.27
13709;BME280;54933;51.908;7.730;2023-02-02T00:21:57;101184.31;;;21.00;64.56
13709;BME280;54933;51.908;7.730;2023-02-02T00:24:23;101179.75;;;21.01;64.67
13709;BME280;54933;51.908;7.730;2023-02-02T00:26:55;101184.94;;;21.02;64.84
13709;BME280;54933;51.908;7.730;2023-02-02T00:29:27;101187.84;;;21.01;64.63
13709;BME280;54933;51.908;7.730;2023-02-02T00:31:53;101180.59;;;21.01;64.60
13709;BME280;54933;51.908;7.730;2023-02-02T00:34:18;101183.69;;;21.05;64.48
13709;BME280;54933;51.908;7.730;2023-02-02T00:36:44;101195.53;;;21.04;64.41
13709;BME280;54933;51.908;7.730;2023-02-02T00:39:13;101181.81;;;21.05;64.43
13709;BME280;54933;51.908;7.730;2023-02-02T00:41:39;101184.53;;;21.05;64.46
13709;BME280;54933;51.908;7.730;2023-02-02T00:44:04;101182.88;;;21.04;64.77
13709;BME280;54933;51.908;7.730;2023-02-02T00:46:48;101181.81;;;21.05;64.42
13709;BME280;54933;51.908;7.730;2023-02-02T00:49:13;101182.03;;;21.04;64.56
13709;BME280;54933;51.908;7.730;2023-02-02T00:51:38;101196.31;;;20.85;64.23
13709;BME280;54933;51.908;7.730;2023-02-02T00:54:04;101195.28;;;20.79;64.29
13709;BME280;54933;51.908;7.730;2023-02-02T00:56:29;101190.06;;;20.78;64.00
13709;BME280;54933;51.908;7.730;2023-02-02T00:58:55;101200.03;;;20.77;64.57
13709;BME280;54933;51.908;7.730;2023-02-02T01:01:21;101197.13;;;20.79;64.59
13709;BME280;54933;51.908;7.730;2023-02-02T01:03:47;101205.44;;;20.77;64.75
13709;BME280;54933;51.908;7.730;2023-02-02T01:06:13;101199.63;;;20.80;64.58
13709;BME280;54933;51.908;7.730;2023-02-02T01:08:38;101202.31;;;20.80;65.01
13709;BME280;54933;51.908;7.730;2023-02-02T01:11:04;101210.41;;;20.80;64.96
13709;BME280;54933;51.908;7.730;2023-02-02T01:13:29;101209.19;;;20.83;64.84
13709;BME280;54933;51.908;7.730;2023-02-02T01:15:56;101211.50;;;20.86;64.84
13709;BME280;54933;51.908;7.730;2023-02-02T01:18:22;101206.94;;;20.86;64.92
13709;BME280;54933;51.908;7.730;2023-02-02T01:20:47;101220.22;;;20.88;64.86
13709;BME280;54933;51.908;7.730;2023-02-02T01:23:20;101210.06;;;20.90;64.75
13709;BME280;54933;51.908;7.730;2023-02-02T01:25:51;101216.25;;;20.90;64.73
13709;BME280;54933;51.908;7.730;2023-02-02T01:28:16;101216.91;;;20.92;64.72
13709;BME280;54933;51.908;7.730;2023-02-02T01:30:41;101212.53;;;20.91;64.78
13709;BME280;54933;51.908;7.730;2023-02-02T01:33:07;101213.16;;;20.93;64.85
13709;BME280;54933;51.908;7.730;2023-02-02T01:35:32;101226.66;;;20.93;64.69
13709;BME280;54933;51.908;7.730;2023-02-02T01:37:57;101221.25;;;20.93;64.58
13709;BME280;54933;51.908;7.730;2023-02-02T01:40:22;101230.84;;;20.96;64.80
13709;BME280;54933;51.908;7.730;2023-02-02T01:42:48;101224.59;;;20.95;64.61
13709;BME280;54933;51.908;7.730;2023-02-02T01:45:28;101227.50;;;20.94;64.68
13709;BME280;54933;51.908;7.730;2023-02-02T01:47:57;101233.75;;;20.94;64.54
13709;BME280;54933;51.908;7.730;2023-02-02T01:50:28;101231.69;;;20.96;64.91
13709;BME280;54933;51.908;7.730;2023-02-02T01:52:56;101236.06;;;20.97;64.72
13709;BME280;54933;51.908;7.730;2023-02-02T01:55:24;101228.97;;;20.96;64.64
13709;BME280;54933;51.908;7.730;2023-02-02T01:57:57;101229.19;;;20.95;64.65
13709;BME280;54933;51.908;7.730;2023-02-02T02:00:23;101247.88;;;20.96;64.80
13709;BME280;54933;51.908;7.730;2023-02-02T02:02:54;101243.13;;;20.98;64.63
13709;BME280;54933;51.908;7.730;2023-02-02T02:05:25;101245.19;;;20.96;64.48
13709;BME280;54933;51.908;7.730;2023-02-02T02:07:54;101247.03;;;20.96;64.59
13709;BME280;54933;51.908;7.730;2023-02-02T02:10:20;101249.56;;;20.97;64.94
13709;BME280;54933;51.908;7.730;2023-02-02T02:12:48;101254.97;;;20.97;64.80
13709;BME280;54933;51.908;7.730;2023-02-02T02:15:13;101250.41;;;20.98;64.89
13709;BME280;54933;51.908;7.730;2023-02-02T02:24:01;101257.00;;;20.95;64.61
13709;BME280;54933;51.908;7.730;2023-02-02T02:27:11;101246.19;;;20.95;64.70
13709;BME280;54933;51.908;7.730;2023-02-02T02:35:40;101248.91;;;20.95;64.70
13709;BME280;54933;51.908;7.730;2023-02-02T02:40:50;101250.78;;;20.95;64.75
13709;BME280;54933;51.908;7.730;2023-02-02T02:43:26;101248.91;;;20.95;64.58
13709;BME280;54933;51.908;7.730;2023-02-02T02:45:53;101259.72;;;20.95;64.60
13709;BME280;54933;51.908;7.730;2023-02-02T02:48:19;101257.00;;;20.95;64.67
13709;BME280;54933;51.908;7.730;2023-02-02T02:50:45;101257.84;;;20.96;64.72
13709;BME280;54933;51.908;7.730;2023-02-02T02:53:16;101254.97;;;20.97;64.58
13709;BME280;54933;51.908;7.730;2023-02-02T02:55:52;101256.00;;;20.96;64.76
13709;BME280;54933;51.908;7.730;2023-02-02T02:58:35;101250.78;;;20.95;64.74
13709;BME280;54933;51.908;7.730;2023-02-02T03:01:20;101261.41;;;20.96;64.86
13709;BME280;54933;51.908;7.730;2023-02-02T03:04:09;101261.41;;;20.96;64.70
13709;BME280;54933;51.908;7.730;2023-02-02T03:09:14;101255.34;;;20.94;64.71
13709;BME280;54933;51.908;7.730;2023-02-02T03:11:43;101257.69;;;20.97;64.78
13709;BME280;54933;51.908;7.730;2023-02-02T03:14:09;101252.44;;;20.96;64.84
13709;BME280;54933;51.908;7.730;2023-02-02T03:16:35;101257.84;;;20.96;64.77
13709;BME280;54933;51.908;7.730;2023-02-02T03:19:02;101265.13;;;20.95;64.65
13709;BME280;54933;51.908;7.730;2023-02-02T03:21:29;101249.94;;;20.94;64.79
13709;BME280;54933;51.908;7.730;2023-02-02T03:23:54;101243.50;;;20.95;64.73
13709;BME280;54933;51.908;7.730;2023-02-02T03:26:19;101240.81;;;20.95;64.84
13709;BME280;54933;51.908;7.730;2023-02-02T03:28:46;101240.00;;;20.95;64.55
13709;BME280;54933;51.908;7.730;2023-02-02T03:31:11;101232.91;;;20.94;64.26
13709;BME280;54933;51.908;7.730;2023-02-02T03:33:37;101233.75;;;20.94;64.66
13709;BME280;54933;51.908;7.730;2023-02-02T03:36:03;101237.28;;;20.95;64.65
13709;BME280;54933;51.908;7.730;2023-02-02T03:38:28;101241.63;;;20.96;64.59
13709;BME280;54933;51.908;7.730;2023-02-02T03:40:53;101238.94;;;20.96;64.58
13709;BME280;54933;51.908;7.730;2023-02-02T03:43:20;101247.25;;;20.94;64.78
13709;BME280;54933;51.908;7.730;2023-02-02T03:45:46;101240.16;;;20.93;64.62
13709;BME280;54933;51.908;7.730;2023-02-02T03:48:11;101241.00;;;20.94;64.84
13709;BME280;54933;51.908;7.730;2023-02-02T03:50:36;101240.81;;;20.95;64.63
13709;BME280;54933;51.908;7.730;2023-02-02T03:53:02;101250.97;;;20.93;64.52
13709;BME280;54933;51.908;7.730;2023-02-02T03:55:27;101247.03;;;20.96;64.69
13709;BME280;54933;51.908;7.730;2023-02-02T03:57:52;101248.91;;;20.95;64.56
13709;BME280;54933;51.908;7.730;2023-02-02T04:00:18;101248.25;;;20.93;64.57
13709;BME280;54933;51.908;7.730;2023-02-02T04:02:43;101252.03;;;20.92;64.56
13709;BME280;54933;51.908;7.730;2023-02-02T04:05:08;101254.50;;;20.94;64.57
13709;BME280;54933;51.908;7.730;2023-02-02T04:07:34;101248.25;;;20.93;64.64
13709;BME280;54933;51.908;7.730;2023-02-02T04:09:59;101252.03;;;20.92;64.79
13709;BME280;54933;51.908;7.730;2023-02-02T04:12:24;101254.50;;;20.94;64.74
13709;BME280;54933;51.908;7.730;2023-02-02T04:14:50;101247.03;;;20.96;64.54
13709;BME280;54933;51.908;7.730;2023-02-02T04:17:15;101246.41;;;20.94;64.82
13709;BME280;54933;51.908;7.730;2023-02-02T04:19:40;101247.25;;;20.94;64.55
13709;BME280;54933;51.908;7.730;2023-02-02T04:22:05;101253.66;;;20.93;64.70
13709;BME280;54933;51.908;7.730;2023-02-02T04:24:31;101244.75;;;20.93;64.65
13709;BME280;54933;51.908;7.730;2023-02-02T04:26:56;101261.16;;;20.91;64.72
13709;BME280;54933;51.908;7.730;2023-02-02T04:29:21;101261.78;;;20.93;64.69
13709;BME280;54933;51.908;7.730;2023-02-02T04:31:46;101269.06;;;20.93;64.64
13709;BME280;54933;51.908;7.730;2023-02-02T04:34:12;101264.47;;;20.93;64.63
13709;BME280;54933;51.908;7.730;2023-02-02T04:36:37;101269.88;;;20.93;64.63
13709;BME280;54933;51.908;7.730;2023-02-02T04:39:03;101260.75;;;20.94;64.54
13709;BME280;54933;51.908;7.730;2023-02-02T04:41:29;101256.19;;;20.95;64.57
13709;BME280;54933;51.908;7.730;2023-02-02T04:43:54;101258.06;;;20.94;64.43
13709;BME280;54933;51.908;7.730;2023-02-02T04:46:19;101259.06;;;20.93;64.83
13709;BME280;54933;51.908;7.730;2023-02-02T04:48:47;101257.00;;;20.95;64.74
13709;BME280;54933;51.908;7.730;2023-02-02T04:51:13;101258.06;;;20.94;64.82
13709;BME280;54933;51.908;7.730;2023-02-02T04:53:39;101256.38;;;20.93;64.55
13709;BME280;54933;51.908;7.730;2023-02-02T04:56:09;101265.13;;;20.95;64.60
13709;BME280;54933;51.908;7.730;2023-02-02T04:58:35;101263.47;;;20.94;64.62
13709;BME280;54933;51.908;7.730;2023-02-02T05:01:07;101257.22;;;20.94;64.65
13709;BME280;54933;51.908;7.730;2023-02-02T05:03:32;101256.38;;;20.93;64.65
13709;BME280;54933;51.908;7.730;2023-02-02T05:06:01;101253.66;;;20.93;64.43
13709;BME280;54933;51.908;7.730;2023-02-02T05:08:27;101257.41;;;20.92;64.64
13709;BME280;54933;51.908;7.730;2023-02-02T05:10:52;101264.88;;;20.90;64.53
13709;BME280;54933;51.908;7.730;2023-02-02T05:13:17;101260.13;;;20.92;65.09
13709;BME280;54933;51.908;7.730;2023-02-02T05:18:08;101266.38;;;20.93;64.59
13709;BME280;54933;51.908;7.730;2023-02-02T05:20:33;101271.97;;;20.91;64.39
13709;BME280;54933;51.908;7.730;2023-02-02T05:22:58;101271.97;;;20.91;64.61
13709;BME280;54933;51.908;7.730;2023-02-02T05:25:23;101273.63;;;20.92;64.40
13709;BME280;54933;51.908;7.730;2023-02-02T05:27:49;101268.22;;;20.86;64.37
13709;BME280;54933;51.908;7.730;2023-02-02T05:30:14;101266.72;;;20.70;64.13
13709;BME280;54933;51.908;7.730;2023-02-02T05:32:40;101271.44;;;20.55;63.96
13709;BME280;54933;51.908;7.730;2023-02-02T05:35:06;101260.59;;;20.49;63.89
13709;BME280;54933;51.908;7.730;2023-02-02T05:37:31;101268.50;;;20.50;64.21
13709;BME280;54933;51.908;7.730;2023-02-02T05:39:56;101270.56;;;20.48;64.22
13709;BME280;54933;51.908;7.730;2023-02-02T05:42:22;101276.16;;;20.47;64.32
13709;BME280;54933;51.908;7.730;2023-02-02T05:44:47;101276.56;;;20.44;64.33
13709;BME280;54933;51.908;7.730;2023-02-02T05:47:12;101278.84;;;20.40;64.21
13709;BME280;54933;51.908;7.730;2023-02-02T05:49:38;101275.50;;;20.38;64.13
13709;BME280;54933;51.908;7.730;2023-02-02T05:52:03;101279.66;;;20.34;64.20
13709;BME280;54933;51.908;7.730;2023-02-02T05:54:29;101279.69;;;20.41;64.44
13709;BME280;54933;51.908;7.730;2023-02-02T05:56:54;101279.47;;;20.42;64.59
13709;BME280;54933;51.908;7.730;2023-02-02T05:59:21;101282.63;;;20.46;64.58
13709;BME280;54933;51.908;7.730;2023-02-02T06:01:47;101286.75;;;20.48;65.19
13709;BME280;54933;51.908;7.730;2023-02-02T06:04:13;101284.69;;;20.50;64.87
13709;BME280;54933;51.908;7.730;2023-02-02T06:06:38;101287.00;;;20.53;64.94
13709;BME280;54933;51.908;7.730;2023-02-02T06:09:05;101295.50;;;20.50;65.09
13709;BME280;54933;51.908;7.730;2023-02-02T06:11:31;101294.84;;;20.48;65.32
13709;BME280;54933;51.908;7.730;2023-02-02T06:13:57;101290.50;;;20.47;65.82
13709;BME280;54933;51.908;7.730;2023-02-02T06:16:23;101289.25;;;20.50;66.22
13709;BME280;54933;51.908;7.730;2023-02-02T06:18:48;101286.59;;;20.56;66.17
13709;BME280;54933;51.908;7.730;2023-02-02T06:21:14;101285.97;;;20.61;66.26
13709;BME280;54933;51.908;7.730;2023-02-02T06:23:39;101284.09;;;20.55;66.36
13709;BME280;54933;51.908;7.730;2023-02-02T06:26:11;101289.69;;;20.53;66.75
13709;BME280;54933;51.908;7.730;2023-02-02T06:28:36;101287.41;;;20.50;66.61
13709;BME280;54933;51.908;7.730;2023-02-02T06:31:03;101286.28;;;20.38;66.83
13709;BME280;54933;51.908;7.730;2023-02-02T06:33:28;101284.00;;;20.35;66.77
13709;BME280;54933;51.908;7.730;2023-02-02T06:35:58;101296.47;;;20.43;66.36
13709;BME280;54933;51.908;7.730;2023-02-02T06:38:23;101295.66;;;20.42;66.75
13709;BME280;54933;51.908;7.730;2023-02-02T06:40:48;101297.06;;;20.32;65.59
13709;BME280;54933;51.908;7.730;2023-02-02T06:43:14;101301.63;;;20.31;64.88
13709;BME280;54933;51.908;7.730;2023-02-02T06:45:40;101304.38;;;20.38;65.41
13709;BME280;54933;51.908;7.730;2023-02-02T06:48:06;101315.00;;;20.46;65.93
13709;BME280;54933;51.908;7.730;2023-02-02T06:50:35;101311.28;;;20.53;66.19
13709;BME280;54933;51.908;7.730;2023-02-02T06:53:01;101308.19;;;20.56;66.39
13709;BME280;54933;51.908;7.730;2023-02-02T06:55:26;101305.72;;;20.61;66.28
13709;BME280;54933;51.908;7.730;2023-02-02T06:57:56;101301.81;;;20.64;66.42
13709;BME280;54933;51.908;7.730;2023-02-02T07:00:21;101308.41;;;20.61;66.16
13709;BME280;54933;51.908;7.730;2023-02-02T07:02:47;101301.13;;;20.55;65.93
13709;BME280;54933;51.908;7.730;2023-02-02T07:05:12;101286.78;;;20.55;65.99
13709;BME280;54933;51.908;7.730;2023-02-02T07:07:37;101300.94;;;20.57;65.74
13709;BME280;54933;51.908;7.730;2023-02-02T07:10:02;101296.78;;;20.61;65.98
13709;BME280;54933;51.908;7.730;2023-02-02T07:12:28;101299.09;;;20.64;66.13
13709;BME280;54933;51.908;7.730;2023-02-02T07:14:53;101301.59;;;20.65;66.02
13709;BME280;54933;51.908;7.730;2023-02-02T07:17:18;101309.28;;;20.68;65.85
13709;BME280;54933;51.908;7.730;2023-02-02T07:19:44;101306.38;;;20.70;65.89
13709;BME280;54933;51.908;7.730;2023-02-02T07:22:09;101305.13;;;20.72;66.06
13709;BME280;54933;51.908;7.730;2023-02-02T07:24:34;101315.56;;;20.75;65.94
13709;BME280;54933;51.908;7.730;2023-02-02T07:27:02;101292.69;;;20.71;65.37
13709;BME280;54933;51.908;7.730;2023-02-02T07:29:27;101332.56;;;20.69;65.36
13709;BME280;54933;51.908;7.730;2023-02-02T07:31:52;101332.78;;;20.74;65.39
13709;BME280;54933;51.908;7.730;2023-02-02T07:34:18;101342.56;;;20.75;65.51
13709;BME280;54933;51.908;7.730;2023-02-02T07:36:43;101343.19;;;20.77;65.39
13709;BME280;54933;51.908;7.730;2023-02-02T07:39:10;101333.00;;;20.79;65.43
13709;BME280;54933;51.908;7.730;2023-02-02T07:41:36;101333.00;;;20.79;65.39
13709;BME280;54933;51.908;7.730;2023-02-02T07:44:02;101343.19;;;20.77;65.20
13709;BME280;54933;51.908;7.730;2023-02-02T07:46:28;101346.53;;;20.79;65.20
13709;BME280;54933;51.908;7.730;2023-02-02T07:48:54;101355.66;;;20.78;65.19
13709;BME280;54933;51.908;7.730;2023-02-02T07:51:19;101362.72;;;20.79;65.04
13709;BME280;54933;51.908;7.730;2023-02-02T07:53:47;101357.97;;;20.81;65.06
13709;BME280;54933;51.908;7.730;2023-02-02T07:56:21;101351.72;;;20.81;65.05
13709;BME280;54933;51.908;7.730;2023-02-02T07:58:49;101365.88;;;20.83;65.30
13709;BME280;54933;51.908;7.730;2023-02-02T08:01:15;101365.88;;;20.83;64.96
13709;BME280;54933;51.908;7.730;2023-02-02T08:03:41;101371.25;;;20.83;65.10
13709;BME280;54933;51.908;7.730;2023-02-02T08:06:14;101368.34;;;20.84;65.41
13709;BME280;54933;51.908;7.730;2023-02-02T08:08:40;101374.41;;;20.86;65.26
13709;BME280;54933;51.908;7.730;2023-02-02T08:11:08;101373.34;;;20.87;65.10
13709;BME280;54933;51.908;7.730;2023-02-02T08:13:34;101384.16;;;20.87;64.95
13709;BME280;54933;51.908;7.730;2023-02-02T08:15:59;101383.16;;;20.88;64.95
13709;BME280;54933;51.908;7.730;2023-02-02T08:18:24;101392.91;;;20.89;64.94
13709;BME280;54933;51.908;7.730;2023-02-02T08:20:50;101387.50;;;20.89;65.15
13709;BME280;54933;51.908;7.730;2023-02-02T08:23:16;101391.84;;;20.90;65.19
13709;BME280;54933;51.908;7.730;2023-02-02T08:25:47;101394.56;;;20.90;65.04
13709;BME280;54933;51.908;7.730;2023-02-02T08:30:38;101394.56;;;20.90;65.00
13709;BME280;54933;51.908;7.730;2023-02-02T08:33:03;101397.91;;;20.92;65.07
13709;BME280;54933;51.908;7.730;2023-02-02T08:35:29;101403.31;;;20.92;65.07
13709;BME280;54933;51.908;7.730;2023-02-02T08:37:54;101404.97;;;20.93;65.04
13709;BME280;54933;51.908;7.730;2023-02-02T08:40:19;101406.66;;;20.94;64.79
13709;BME280;54933;51.908;7.730;2023-02-02T08:42:44;101412.06;;;20.94;64.94
13709;BME280;54933;51.908;7.730;2023-02-02T08:45:11;101412.91;;;20.95;65.12
13709;BME280;54933;51.908;7.730;2023-02-02T08:47:37;101413.69;;;20.95;65.05
13709;BME280;54933;51.908;7.730;2023-02-02T08:50:02;101416.38;;;20.89;65.10
13709;BME280;54933;51.908;7.730;2023-02-02T08:52:27;101419.03;;;20.82;64.68
13709;BME280;54933;51.908;7.730;2023-02-02T08:54:53;101423.19;;;20.78;64.57
13709;BME280;54933;51.908;7.730;2023-02-02T08:57:18;101428.59;;;20.78;64.67
13709;BME280;54933;51.908;7.730;2023-02-02T08:59:43;101431.09;;;20.80;64.92
13709;BME280;54933;51.908;7.730;2023-02-02T09:02:11;101449.16;;;20.79;64.82
13709;BME280;54933;51.908;7.730;2023-02-02T09:04:38;101444.41;;;20.81;65.03
13709;BME280;54933;51.908;7.730;2023-02-02T09:07:05;101442.34;;;20.83;65.04
13709;BME280;54933;51.908;7.730;2023-02-02T09:09:31;101452.94;;;20.85;65.02
13709;BME280;54933;51.908;7.730;2023-02-02T09:11:56;101456.09;;;20.88;65.11
13709;BME280;54933;51.908;7.730;2023-02-02T09:14:21;101459.41;;;20.90;64.88
13709;BME280;54933;51.908;7.730;2023-02-02T09:16:47;101459.00;;;20.93;64.74
13709;BME280;54933;51.908;7.730;2023-02-02T09:19:12;101464.41;;;20.93;64.92
13709;BME280;54933;51.908;7.730;2023-02-02T09:21:37;101461.31;;;20.96;64.74
13709;BME280;54933;51.908;7.730;2023-02-02T09:24:11;101464.88;;;20.97;65.28
13709;BME280;54933;51.908;7.730;2023-02-02T09:26:37;101468.41;;;20.97;64.94
13709;BME280;54933;51.908;7.730;2023-02-02T09:29:05;101476.53;;;20.97;64.84
13709;BME280;54933;51.908;7.730;2023-02-02T09:31:35;101476.13;;;21.00;65.15
13709;BME280;54933;51.908;7.730;2023-02-02T09:34:06;101479.88;;;20.99;64.81
13709;BME280;54933;51.908;7.730;2023-02-02T09:36:32;101482.38;;;21.01;64.89
13709;BME280;54933;51.908;7.730;2023-02-02T09:38:58;101481.53;;;21.00;64.78
13709;BME280;54933;51.908;7.730;2023-02-02T09:44:23;101489.41;;;21.02;64.75
13709;BME280;54933;51.908;7.730;2023-02-02T09:49:34;101503.56;;;21.04;64.77
13709;BME280;54933;51.908;7.730;2023-02-02T09:52:07;101499.81;;;21.05;64.85
13709;BME280;54933;51.908;7.730;2023-02-02T09:54:42;101511.47;;;21.05;64.91
13709;BME280;54933;51.908;7.730;2023-02-02T09:57:15;101506.06;;;21.05;65.02
13709;BME280;54933;51.908;7.730;2023-02-02T09:59:42;101513.13;;;21.06;64.76
13709;BME280;54933;51.908;7.730;2023-02-02T10:02:35;101520.22;;;21.07;64.85
13709;BME280;54933;51.908;7.730;2023-02-02T10:05:07;101521.88;;;21.08;64.88
13709;BME280;54933;51.908;7.730;2023-02-02T10:07:42;101523.56;;;21.09;64.90
13709;BME280;54933;51.908;7.730;2023-02-02T10:13:14;101524.38;;;21.10;64.94
13709;BME280;54933;51.908;7.730;2023-02-02T10:15:54;101530.84;;;21.09;64.90
13709;BME280;54933;51.908;7.730;2023-02-02T10:21:05;101538.94;;;21.09;64.69
13709;BME280;54933;51.908;7.730;2023-02-02T10:23:35;101531.88;;;21.08;64.72
13709;BME280;54933;51.908;7.730;2023-02-02T10:26:15;101538.25;;;21.00;64.53
13709;BME280;54933;51.908;7.730;2023-02-02T10:34:21;101556.00;;;20.82;64.13
13709;BME280;54933;51.908;7.730;2023-02-02T10:40:16;101564.03;;;20.75;64.30
13709;BME280;54933;51.908;7.730;2023-02-02T10:45:59;101561.34;;;20.75;64.32
13709;BME280;54933;51.908;7.730;2023-02-02T10:48:28;101558.25;;;20.78;64.68
13709;BME280;54933;51.908;7.730;2023-02-02T10:50:58;101561.94;;;20.77;64.85
13709;BME280;54933;51.908;7.730;2023-02-02T10:53:27;101559.44;;;20.76;64.69
13709;BME280;54933;51.908;7.730;2023-02-02T10:55:59;101565.69;;;20.76;64.60
13709;BME280;54933;51.908;7.730;2023-02-02T10:58:30;101564.41;;;20.72;64.73
13709;BME280;54933;51.908;7.730;2023-02-02T11:00:59;101579.34;;;20.68;64.31
13709;BME280;54933;51.908;7.730;2023-02-02T11:03:31;101574.34;;;20.65;64.43
13709;BME280;54933;51.908;7.730;2023-02-02T11:06:01;101571.44;;;20.67;64.52
13709;BME280;54933;51.908;7.730;2023-02-02T11:08:49;101571.88;;;20.70;64.59
13709;BME280;54933;51.908;7.730;2023-02-02T11:11:26;101577.28;;;20.70;64.53
13709;BME280;54933;51.908;7.730;2023-02-02T11:14:01;101579.41;;;20.75;65.01
13709;BME280;54933;51.908;7.730;2023-02-02T11:16:29;101578.16;;;20.77;64.79
13709;BME280;54933;51.908;7.730;2023-02-02T11:18:55;101573.56;;;20.71;64.88
13709;BME280;54933;51.908;7.730;2023-02-02T11:21:27;101575.22;;;20.72;64.60
13709;BME280;54933;51.908;7.730;2023-02-02T11:23:54;101579.75;;;20.65;64.65
13709;BME280;54933;51.908;7.730;2023-02-02T11:26:21;101578.50;;;20.68;64.51
13709;BME280;54933;51.908;7.730;2023-02-02T11:28:47;101576.00;;;20.66;64.88
13709;BME280;54933;51.908;7.730;2023-02-02T11:31:29;101584.09;;;20.66;65.17
13709;BME280;54933;51.908;7.730;2023-02-02T11:34:07;101572.66;;;20.64;65.08
13709;BME280;54933;51.908;7.730;2023-02-02T11:36:33;101575.50;;;20.56;65.01
13709;BME280;54933;51.908;7.730;2023-02-02T11:39:15;101576.13;;;20.58;65.21
13709;BME280;54933;51.908;7.730;2023-02-02T11:41:43;101572.13;;;20.54;65.48
13709;BME280;54933;51.908;7.730;2023-02-02T11:44:20;101582.19;;;20.60;65.84
13709;BME280;54933;51.908;7.730;2023-02-02T11:46:48;101586.34;;;20.63;65.69
13709;BME280;54933;51.908;7.730;2023-02-02T11:49:16;101578.44;;;20.61;65.94
13709;BME280;54933;51.908;7.730;2023-02-02T11:51:57;101578.44;;;20.61;66.31
13709;BME280;54933;51.908;7.730;2023-02-02T11:54:28;101580.34;;;20.67;66.64
13709;BME280;54933;51.908;7.730;2023-02-02T11:56:57;101578.09;;;20.71;66.82
13709;BME280;54933;51.908;7.730;2023-02-02T11:59:43;101580.59;;;20.72;67.22
13709;BME280;54933;51.908;7.730;2023-02-02T12:02:21;101582.63;;;20.64;67.10
13709;BME280;54933;51.908;7.730;2023-02-02T12:04:48;101587.66;;;20.67;67.66
13709;BME280;54933;51.908;7.730;2023-02-02T12:07:27;101588.91;;;20.71;67.97
13709;BME280;54933;51.908;7.730;2023-02-02T12:09:57;101585.66;;;20.75;68.17
13709;BME280;54933;51.908;7.730;2023-02-02T12:15:14;101591.28;;;20.80;67.72
13709;BME280;54933;51.908;7.730;2023-02-02T12:17:46;101591.88;;;20.76;68.00
13709;BME280;54933;51.908;7.730;2023-02-02T12:20:46;101588.78;;;20.79;68.13
13709;BME280;54933;51.908;7.730;2023-02-02T12:23:24;101587.75;;;20.80;67.94
13709;BME280;54933;51.908;7.730;2023-02-02T12:29:02;101582.81;;;20.83;68.04
13709;BME280;54933;51.908;7.730;2023-02-02T12:37:45;101587.66;;;20.94;67.69
13709;BME280;54933;51.908;7.730;2023-02-02T12:43:25;101595.41;;;20.97;67.64
13709;BME280;54933;51.908;7.730;2023-02-02T12:48:41;101578.66;;;20.87;67.15
13709;BME280;54933;51.908;7.730;2023-02-02T12:51:44;101576.56;;;20.83;66.80
13709;BME280;54933;51.908;7.730;2023-02-02T12:56:58;101574.06;;;20.81;66.82
13709;BME280;54933;51.908;7.730;2023-02-02T12:59:47;101577.00;;;20.86;66.81
13709;BME280;54933;51.908;7.730;2023-02-02T13:02:56;101575.13;;;20.87;66.68
13709;BME280;54933;51.908;7.730;2023-02-02T13:05:43;101576.81;;;20.88;66.88
13709;BME280;54933;51.908;7.730;2023-02-02T13:08:16;101577.72;;;20.74;66.95
13709;BME280;54933;51.908;7.730;2023-02-02T13:10:48;101576.69;;;20.75;66.94
13709;BME280;54933;51.908;7.730;2023-02-02T13:13:42;101585.94;;;20.66;66.76
13709;BME280;54933;51.908;7.730;2023-02-02T13:16:10;101577.66;;;20.67;66.87
13709;BME280;54933;51.908;7.730;2023-02-02T13:18:41;101593.84;;;20.67;67.31
13709;BME280;54933;51.908;7.730;2023-02-02T13:21:13;101591.81;;;20.69;67.27
13709;BME280;54933;51.908;7.730;2023-02-02T13:23:47;101586.41;;;20.69;67.59
13709;BME280;54933;51.908;7.730;2023-02-02T13:26:18;101591.41;;;20.72;67.12
13709;BME280;54933;51.908;7.730;2023-02-02T13:29:02;101589.34;;;20.74;67.68
13709;BME280;54933;51.908;7.730;2023-02-02T13:31:37;101585.44;;;20.77;67.84
13709;BME280;54933;51.908;7.730;2023-02-02T13:36:49;101593.34;;;20.78;67.87
13709;BME280;54933;51.908;7.730;2023-02-02T13:39:35;101593.97;;;20.80;68.13
13709;BME280;54933;51.908;7.730;2023-02-02T13:42:04;101590.25;;;20.81;67.92
13709;BME280;54933;51.908;7.730;2023-02-02T13:44:39;101591.91;;;20.82;68.06
13709;BME280;54933;51.908;7.730;2023-02-02T13:47:15;101593.59;;;20.83;67.87
13709;BME280;54933;51.908;7.730;2023-02-02T13:49:53;101593.06;;;20.94;67.72
13709;BME280;54933;51.908;7.730;2023-02-02T14:00:52;101586.75;;;21.08;67.33
13709;BME280;54933;51.908;7.730;2023-02-02T14:03:28;101585.72;;;21.09;66.98
13709;BME280;54933;51.908;7.730;2023-02-02T14:08:35;101575.34;;;21.13;66.57
13709;BME280;54933;51.908;7.730;2023-02-02T14:11:04;101573.47;;;21.13;66.81
13709;BME280;54933;51.908;7.730;2023-02-02T14:13:43;101589.69;;;21.13;66.66
13709;BME280;54933;51.908;7.730;2023-02-02T14:19:12;101586.59;;;21.16;66.27
13709;BME280;54933;51.908;7.730;2023-02-02T14:26:57;101595.53;;;21.17;66.09
13709;BME280;54933;51.908;7.730;2023-02-02T14:32:27;101588.88;;;21.19;66.17